createdAt,value
2018-09-08T00:08:42.113Z,24.39
2018-09-08T00:18:50.592Z,24.39
2018-09-08T00:29:00.793Z,24.38
2018-09-08T00:39:03.248Z,24.32
2018-09-08T00:49:05.624Z,24.32
2018-09-08T00:59:08.081Z,24.32
2018-09-08T01:09:10.641Z,24.31
2018-09-08T01:19:15.324Z,24.28
2018-09-08T01:29:19.056Z,24.27
2018-09-08T01:39:21.700Z,24.23
2018-09-08T01:49:24.187Z,24.27
2018-09-08T01:59:26.702Z,24.27
2018-09-08T02:09:29.793Z,24.20
2018-09-08T02:19:32.580Z,24.22
2018-09-08T02:29:35.393Z,24.19
2018-09-08T02:39:38.208Z,24.21
2018-09-08T02:49:46.209Z,24.18
2018-09-08T02:59:48.153Z,24.16
2018-09-08T03:09:50.001Z,24.20
2018-09-08T03:19:52.563Z,24.18
2018-09-08T03:29:54.612Z,24.18
2018-09-08T03:39:56.526Z,24.11
2018-09-08T03:49:59.743Z,24.10
2018-09-08T04:00:01.678Z,24.06
2018-09-08T04:10:04.067Z,24.31
2018-09-08T04:20:06.508Z,25.22
2018-09-08T04:30:08.879Z,25.35
2018-09-08T04:40:11.393Z,25.53
2018-09-08T04:50:14.474Z,25.72
2018-09-08T05:00:16.874Z,25.80
2018-09-08T05:10:19.496Z,25.83
2018-09-08T05:20:22.928Z,25.98
2018-09-08T05:30:25.760Z,26.05
2018-09-08T05:40:28.943Z,26.01
2018-09-08T05:50:31.327Z,26.09
2018-09-08T06:00:34.173Z,26.17
2018-09-08T06:10:36.605Z,26.07
2018-09-08T06:20:39.137Z,26.11
2018-09-08T06:30:41.640Z,25.99
2018-09-08T06:40:44.148Z,26.28
2018-09-08T06:50:46.680Z,26.56
2018-09-08T07:00:49.345Z,27.69
2018-09-08T07:10:51.753Z,26.28
2018-09-08T07:20:54.224Z,26.54
2018-09-08T07:30:56.639Z,26.38
2018-09-08T07:40:59.092Z,26.39
2018-09-08T07:51:01.432Z,26.32
2018-09-08T08:01:03.731Z,26.27
2018-09-08T08:11:06.252Z,27.88
2018-09-08T08:21:08.665Z,26.39
2018-09-08T08:31:12.501Z,26.40
2018-09-08T08:41:15.076Z,26.37
2018-09-08T08:51:25.207Z,27.95
2018-09-08T09:01:27.680Z,27.23
2018-09-08T09:11:30.039Z,27.43
2018-09-08T09:21:37.947Z,27.39
2018-09-08T09:31:40.389Z,26.93
2018-09-08T09:41:43.192Z,26.71
2018-09-08T09:51:45.597Z,26.35
2018-09-08T10:01:53.443Z,27.06
2018-09-08T10:11:56.179Z,26.51
2018-09-08T10:21:58.578Z,26.70
2018-09-08T10:32:00.920Z,26.56
2018-09-08T10:42:03.282Z,26.58
2018-09-08T10:52:11.307Z,26.91
2018-09-08T11:02:13.976Z,26.74
2018-09-08T11:12:15.997Z,26.77
2018-09-08T11:22:18.328Z,26.71
2018-09-08T11:32:20.657Z,26.88
2018-09-08T11:42:23.827Z,26.62
2018-09-08T11:52:26.196Z,26.52
2018-09-08T12:02:28.518Z,26.34
2018-09-08T12:12:30.888Z,26.40
2018-09-08T12:22:33.311Z,26.25
2018-09-08T12:32:35.686Z,26.24
2018-09-08T12:42:38.024Z,26.17
2018-09-08T12:52:40.328Z,26.23
2018-09-08T13:02:42.904Z,26.25
2018-09-08T13:12:45.432Z,26.17
2018-09-08T13:22:47.875Z,26.16
2018-09-08T13:32:50.243Z,26.15
2018-09-08T13:42:52.737Z,25.61
2018-09-08T13:52:55.326Z,24.98
2018-09-08T14:02:57.800Z,25.15
2018-09-08T14:13:00.339Z,25.48
2018-09-08T14:23:02.821Z,25.67
2018-09-08T14:33:05.160Z,25.73
2018-09-08T14:43:07.645Z,25.82
2018-09-08T14:53:09.966Z,25.82
2018-09-08T15:03:12.302Z,25.79
2018-09-08T15:13:14.698Z,25.84
2018-09-08T15:23:17.170Z,25.91
2018-09-08T15:33:19.708Z,25.85
2018-09-08T15:43:22.230Z,25.88
2018-09-08T15:53:24.767Z,25.84
2018-09-08T16:03:27.240Z,25.84
2018-09-08T16:13:29.571Z,25.82
2018-09-08T16:23:31.913Z,25.76
2018-09-08T16:33:34.458Z,24.81
2018-09-08T16:43:36.969Z,24.99
2018-09-08T16:53:39.500Z,24.55
2018-09-08T17:03:42.023Z,24.50
2018-09-08T17:13:44.535Z,24.38
2018-09-08T17:23:47.118Z,24.20
2018-09-08T17:33:49.627Z,24.04
2018-09-08T17:43:52.147Z,23.96
2018-09-08T17:53:54.730Z,23.95
2018-09-08T18:03:57.152Z,23.84
2018-09-08T18:13:59.575Z,23.87
2018-09-08T18:24:02.033Z,23.76
2018-09-08T18:34:04.576Z,24.28
2018-09-08T18:44:07.075Z,24.64
2018-09-08T18:54:09.650Z,24.78
2018-09-08T19:04:12.169Z,24.87
2018-09-08T19:14:20.098Z,24.90
2018-09-08T19:24:27.996Z,24.84
2018-09-08T19:34:30.520Z,24.80
2018-09-08T19:44:32.879Z,25.04
2018-09-08T19:54:35.436Z,25.06
2018-09-08T20:04:37.888Z,25.07
2018-09-08T20:14:40.417Z,25.14
2018-09-08T20:24:42.772Z,24.84
2018-09-08T20:34:45.849Z,24.86
2018-09-08T20:44:48.220Z,24.77
2018-09-08T20:54:50.633Z,24.69
2018-09-08T21:04:53.777Z,24.64
2018-09-08T21:14:56.792Z,24.60
2018-09-08T21:25:00.056Z,24.55
2018-09-08T21:35:02.440Z,24.51
2018-09-08T21:45:04.793Z,24.47
2018-09-08T21:55:07.337Z,24.44
2018-09-08T22:05:10.596Z,24.43
2018-09-08T22:15:13.052Z,24.36
2018-09-08T22:25:15.665Z,24.37
2018-09-08T22:35:18.210Z,24.31
2018-09-08T22:45:20.957Z,24.31
2018-09-08T22:55:23.416Z,24.29
2018-09-08T23:05:25.900Z,24.24
2018-09-08T23:15:28.747Z,24.25
2018-09-08T23:25:32.716Z,24.18
2018-09-08T23:35:35.311Z,24.16
2018-09-08T23:45:37.756Z,24.10
2018-09-08T23:55:40.434Z,24.14
